Kellyville, Oklahoma
Current Conditions -  °F | °C
As of 11:53 PM on Sunday 25 Jan 2015 (Local Time) from KRVS Reporting Station
Clear Clear  
Wind Chill: 36°   Ceiling: Unl
Heat Index: 36°   Visibility: 10mi
Dew Point: 29°   Wind: 0mph
Humidity: 76%   Direction: NA
Pressure: 30.16"   Gusts: NA
Location:  35.94°N, 96.21°W
Report Text: KRVS 260553Z 00000KT 10SM CLR 02/M02 A3016 RMK AO2 SLP220 T00221017 10100 20022 401330022 50006
Loading
Personal Weather Stations






























Interactive Weather Map New forecast layout! Learn more

10-Day Weather Forecast

Advertisements
Track Severe Weather on mobile